Watchet, United Kingdom
Current Conditions -  °F | °C
As of 7:50 PM on Sunday 25 Jan 2015 (Local Time) from EGFF Reporting Station
Overcast Overcast  
Wind Chill: 41°   Ceiling: 800
Heat Index: 46°   Visibility: 6mi
Dew Point: 46°   Wind: 10mph
Humidity: 100%   Direction: 260°W
Pressure: 30.33"   Gusts: NA
Location:  51.18°N, 3.33°W
Report Text: EGFF 251950Z AUTO 26009KT 9999 OVC008 08/08 Q1027
Loading
Personal Weather Stations






























Interactive Weather Map New forecast layout! Learn more

10-Day Weather Forecast

Advertisements
Track Severe Weather on mobile